sensor_id;sensor_type;location;lat;lon;timestamp;P1;durP1;ratioP1;P2;durP2;ratioP2
38053;SDS011;23859;50.672;7.164;2022-11-20T00:01:06;44.58;;;21.83;;
38053;SDS011;23859;50.672;7.164;2022-11-20T00:03:34;39.15;;;20.25;;
38053;SDS011;23859;50.672;7.164;2022-11-20T00:06:01;41.55;;;21.08;;
38053;SDS011;23859;50.672;7.164;2022-11-20T00:08:31;42.20;;;21.17;;
38053;SDS011;23859;50.672;7.164;2022-11-20T00:11:02;38.85;;;20.23;;
38053;SDS011;23859;50.672;7.164;2022-11-20T00:13:33;39.42;;;20.67;;
38053;SDS011;23859;50.672;7.164;2022-11-20T00:16:00;43.55;;;21.80;;
38053;SDS011;23859;50.672;7.164;2022-11-20T00:18:28;45.47;;;20.90;;
38053;SDS011;23859;50.672;7.164;2022-11-20T00:21:00;42.28;;;20.55;;
38053;SDS011;23859;50.672;7.164;2022-11-20T00:23:27;39.65;;;20.95;;
38053;SDS011;23859;50.672;7.164;2022-11-20T00:25:53;38.83;;;20.02;;
38053;SDS011;23859;50.672;7.164;2022-11-20T00:28:19;41.60;;;20.67;;
38053;SDS011;23859;50.672;7.164;2022-11-20T00:30:45;45.10;;;22.90;;
38053;SDS011;23859;50.672;7.164;2022-11-20T00:33:11;40.58;;;21.63;;
38053;SDS011;23859;50.672;7.164;2022-11-20T00:35:38;42.65;;;21.13;;
38053;SDS011;23859;50.672;7.164;2022-11-20T00:38:04;40.15;;;20.15;;
38053;SDS011;23859;50.672;7.164;2022-11-20T00:40:30;43.20;;;20.13;;
38053;SDS011;23859;50.672;7.164;2022-11-20T00:42:56;40.75;;;20.83;;
38053;SDS011;23859;50.672;7.164;2022-11-20T00:45:22;42.25;;;20.70;;
38053;SDS011;23859;50.672;7.164;2022-11-20T00:47:48;42.53;;;21.33;;
38053;SDS011;23859;50.672;7.164;2022-11-20T00:50:14;42.55;;;20.60;;
38053;SDS011;23859;50.672;7.164;2022-11-20T00:52:40;44.97;;;21.85;;
38053;SDS011;23859;50.672;7.164;2022-11-20T00:55:06;36.60;;;20.27;;
38053;SDS011;23859;50.672;7.164;2022-11-20T00:57:32;43.35;;;22.35;;
38053;SDS011;23859;50.672;7.164;2022-11-20T00:59:58;41.63;;;22.15;;
38053;SDS011;23859;50.672;7.164;2022-11-20T01:02:24;43.15;;;21.65;;
38053;SDS011;23859;50.672;7.164;2022-11-20T01:04:50;45.13;;;21.23;;
38053;SDS011;23859;50.672;7.164;2022-11-20T01:07:16;43.65;;;22.58;;
38053;SDS011;23859;50.672;7.164;2022-11-20T01:09:42;38.60;;;20.05;;
38053;SDS011;23859;50.672;7.164;2022-11-20T01:12:08;45.28;;;21.75;;
38053;SDS011;23859;50.672;7.164;2022-11-20T01:14:35;43.92;;;21.25;;
38053;SDS011;23859;50.672;7.164;2022-11-20T01:17:01;42.55;;;21.02;;
38053;SDS011;23859;50.672;7.164;2022-11-20T01:19:27;40.60;;;20.75;;
38053;SDS011;23859;50.672;7.164;2022-11-20T01:21:53;40.17;;;20.17;;
38053;SDS011;23859;50.672;7.164;2022-11-20T01:24:20;42.95;;;21.65;;
38053;SDS011;23859;50.672;7.164;2022-11-20T01:26:48;43.20;;;20.75;;
38053;SDS011;23859;50.672;7.164;2022-11-20T01:29:20;36.15;;;19.25;;
38053;SDS011;23859;50.672;7.164;2022-11-20T01:31:47;47.60;;;22.17;;
38053;SDS011;23859;50.672;7.164;2022-11-20T01:34:14;44.60;;;20.17;;
38053;SDS011;23859;50.672;7.164;2022-11-20T01:36:42;42.40;;;21.85;;
38053;SDS011;23859;50.672;7.164;2022-11-20T01:39:13;43.20;;;21.05;;
38053;SDS011;23859;50.672;7.164;2022-11-20T01:41:42;42.08;;;21.50;;
38053;SDS011;23859;50.672;7.164;2022-11-20T01:47:12;43.72;;;22.27;;
38053;SDS011;23859;50.672;7.164;2022-11-20T01:49:46;44.45;;;20.33;;
38053;SDS011;23859;50.672;7.164;2022-11-20T01:52:24;41.53;;;20.70;;
38053;SDS011;23859;50.672;7.164;2022-11-20T01:55:19;45.60;;;21.08;;
38053;SDS011;23859;50.672;7.164;2022-11-20T01:57:50;43.55;;;21.60;;
38053;SDS011;23859;50.672;7.164;2022-11-20T02:00:17;42.30;;;21.45;;
38053;SDS011;23859;50.672;7.164;2022-11-20T02:02:49;41.95;;;21.73;;
38053;SDS011;23859;50.672;7.164;2022-11-20T02:05:35;59.47;;;25.52;;
38053;SDS011;23859;50.672;7.164;2022-11-20T02:08:09;46.53;;;23.33;;
38053;SDS011;23859;50.672;7.164;2022-11-20T02:10:36;42.95;;;21.30;;
38053;SDS011;23859;50.672;7.164;2022-11-20T02:13:03;45.50;;;22.52;;
38053;SDS011;23859;50.672;7.164;2022-11-20T02:15:48;40.20;;;20.65;;
38053;SDS011;23859;50.672;7.164;2022-11-20T02:18:14;47.80;;;22.42;;
38053;SDS011;23859;50.672;7.164;2022-11-20T02:20:43;41.83;;;20.48;;
38053;SDS011;23859;50.672;7.164;2022-11-20T02:23:12;41.10;;;20.83;;
38053;SDS011;23859;50.672;7.164;2022-11-20T02:25:46;40.72;;;20.45;;
38053;SDS011;23859;50.672;7.164;2022-11-20T02:28:13;44.50;;;21.42;;
38053;SDS011;23859;50.672;7.164;2022-11-20T02:30:39;47.60;;;21.88;;
38053;SDS011;23859;50.672;7.164;2022-11-20T02:33:05;38.88;;;21.33;;
38053;SDS011;23859;50.672;7.164;2022-11-20T02:37:58;44.60;;;21.95;;
38053;SDS011;23859;50.672;7.164;2022-11-20T02:40:26;43.95;;;20.25;;
38053;SDS011;23859;50.672;7.164;2022-11-20T02:42:52;41.58;;;21.90;;
38053;SDS011;23859;50.672;7.164;2022-11-20T02:45:19;39.50;;;20.88;;
38053;SDS011;23859;50.672;7.164;2022-11-20T02:47:45;41.63;;;20.95;;
38053;SDS011;23859;50.672;7.164;2022-11-20T02:50:12;56.28;;;23.13;;
38053;SDS011;23859;50.672;7.164;2022-11-20T02:52:38;41.25;;;20.95;;
38053;SDS011;23859;50.672;7.164;2022-11-20T02:55:04;49.08;;;23.10;;
38053;SDS011;23859;50.672;7.164;2022-11-20T02:57:30;46.33;;;22.05;;
38053;SDS011;23859;50.672;7.164;2022-11-20T02:59:56;43.75;;;20.92;;
38053;SDS011;23859;50.672;7.164;2022-11-20T03:02:22;47.42;;;22.33;;
38053;SDS011;23859;50.672;7.164;2022-11-20T03:04:48;42.60;;;20.95;;
38053;SDS011;23859;50.672;7.164;2022-11-20T03:07:14;45.20;;;22.00;;
38053;SDS011;23859;50.672;7.164;2022-11-20T03:09:41;41.08;;;21.52;;
38053;SDS011;23859;50.672;7.164;2022-11-20T03:12:07;40.72;;;21.05;;
38053;SDS011;23859;50.672;7.164;2022-11-20T03:14:33;41.03;;;19.85;;
38053;SDS011;23859;50.672;7.164;2022-11-20T03:17:00;44.47;;;22.38;;
38053;SDS011;23859;50.672;7.164;2022-11-20T03:19:26;43.38;;;21.45;;
38053;SDS011;23859;50.672;7.164;2022-11-20T03:21:52;45.00;;;20.77;;
38053;SDS011;23859;50.672;7.164;2022-11-20T03:24:18;45.67;;;22.23;;
38053;SDS011;23859;50.672;7.164;2022-11-20T03:26:44;43.85;;;21.42;;
38053;SDS011;23859;50.672;7.164;2022-11-20T03:29:10;44.67;;;21.45;;
38053;SDS011;23859;50.672;7.164;2022-11-20T03:31:37;41.35;;;22.20;;
38053;SDS011;23859;50.672;7.164;2022-11-20T03:34:05;46.92;;;23.08;;
38053;SDS011;23859;50.672;7.164;2022-11-20T03:36:32;39.95;;;20.52;;
38053;SDS011;23859;50.672;7.164;2022-11-20T03:38:58;46.80;;;22.98;;
38053;SDS011;23859;50.672;7.164;2022-11-20T03:41:26;39.47;;;20.60;;
38053;SDS011;23859;50.672;7.164;2022-11-20T03:46:20;47.38;;;21.77;;
38053;SDS011;23859;50.672;7.164;2022-11-20T03:48:47;40.63;;;20.88;;
38053;SDS011;23859;50.672;7.164;2022-11-20T03:51:14;43.60;;;21.45;;
38053;SDS011;23859;50.672;7.164;2022-11-20T03:53:42;46.40;;;22.33;;
38053;SDS011;23859;50.672;7.164;2022-11-20T03:56:10;43.45;;;20.60;;
38053;SDS011;23859;50.672;7.164;2022-11-20T03:58:38;45.40;;;24.88;;
38053;SDS011;23859;50.672;7.164;2022-11-20T04:01:09;46.60;;;21.92;;
38053;SDS011;23859;50.672;7.164;2022-11-20T04:03:38;42.35;;;20.25;;
38053;SDS011;23859;50.672;7.164;2022-11-20T04:06:07;45.95;;;22.17;;
38053;SDS011;23859;50.672;7.164;2022-11-20T04:08:34;46.47;;;21.55;;
38053;SDS011;23859;50.672;7.164;2022-11-20T04:13:36;51.88;;;23.08;;
38053;SDS011;23859;50.672;7.164;2022-11-20T04:16:03;47.60;;;22.10;;
38053;SDS011;23859;50.672;7.164;2022-11-20T04:18:30;47.38;;;21.50;;
38053;SDS011;23859;50.672;7.164;2022-11-20T04:20:57;44.80;;;20.83;;
38053;SDS011;23859;50.672;7.164;2022-11-20T04:23:23;44.05;;;21.15;;
38053;SDS011;23859;50.672;7.164;2022-11-20T04:25:49;50.28;;;21.67;;
38053;SDS011;23859;50.672;7.164;2022-11-20T04:28:15;47.95;;;22.63;;
38053;SDS011;23859;50.672;7.164;2022-11-20T04:30:41;50.50;;;21.73;;
38053;SDS011;23859;50.672;7.164;2022-11-20T04:33:07;50.78;;;23.48;;
38053;SDS011;23859;50.672;7.164;2022-11-20T04:35:34;50.45;;;22.17;;
38053;SDS011;23859;50.672;7.164;2022-11-20T04:38:01;49.03;;;23.40;;
38053;SDS011;23859;50.672;7.164;2022-11-20T04:40:27;50.10;;;25.02;;
38053;SDS011;23859;50.672;7.164;2022-11-20T04:42:53;52.42;;;22.50;;
38053;SDS011;23859;50.672;7.164;2022-11-20T04:45:20;45.78;;;22.67;;
38053;SDS011;23859;50.672;7.164;2022-11-20T04:47:47;50.88;;;22.95;;
38053;SDS011;23859;50.672;7.164;2022-11-20T04:50:13;49.95;;;24.35;;
38053;SDS011;23859;50.672;7.164;2022-11-20T04:52:39;43.33;;;22.33;;
38053;SDS011;23859;50.672;7.164;2022-11-20T04:55:05;51.58;;;24.98;;
38053;SDS011;23859;50.672;7.164;2022-11-20T04:57:31;49.70;;;23.67;;
38053;SDS011;23859;50.672;7.164;2022-11-20T04:59:57;49.60;;;23.92;;
38053;SDS011;23859;50.672;7.164;2022-11-20T05:02:24;50.10;;;23.52;;
38053;SDS011;23859;50.672;7.164;2022-11-20T05:04:50;45.03;;;21.48;;
38053;SDS011;23859;50.672;7.164;2022-11-20T05:07:16;49.83;;;23.52;;
38053;SDS011;23859;50.672;7.164;2022-11-20T05:09:42;48.45;;;23.50;;
38053;SDS011;23859;50.672;7.164;2022-11-20T05:12:08;47.60;;;23.40;;
38053;SDS011;23859;50.672;7.164;2022-11-20T05:14:34;43.42;;;21.27;;
38053;SDS011;23859;50.672;7.164;2022-11-20T05:17:01;53.55;;;23.20;;
38053;SDS011;23859;50.672;7.164;2022-11-20T05:19:27;46.78;;;23.23;;
38053;SDS011;23859;50.672;7.164;2022-11-20T05:21:53;53.38;;;23.77;;
38053;SDS011;23859;50.672;7.164;2022-11-20T05:24:19;50.70;;;23.73;;
38053;SDS011;23859;50.672;7.164;2022-11-20T05:26:45;45.78;;;23.95;;
38053;SDS011;23859;50.672;7.164;2022-11-20T05:29:11;49.90;;;22.60;;
38053;SDS011;23859;50.672;7.164;2022-11-20T05:31:38;53.70;;;23.92;;
38053;SDS011;23859;50.672;7.164;2022-11-20T05:34:05;46.75;;;22.90;;
38053;SDS011;23859;50.672;7.164;2022-11-20T05:36:31;51.17;;;23.15;;
38053;SDS011;23859;50.672;7.164;2022-11-20T05:38:57;50.33;;;23.10;;
38053;SDS011;23859;50.672;7.164;2022-11-20T05:41:24;51.25;;;24.50;;
38053;SDS011;23859;50.672;7.164;2022-11-20T05:43:50;49.97;;;24.40;;
38053;SDS011;23859;50.672;7.164;2022-11-20T05:46:17;49.25;;;23.50;;
38053;SDS011;23859;50.672;7.164;2022-11-20T05:48:45;59.60;;;24.75;;
38053;SDS011;23859;50.672;7.164;2022-11-20T05:51:13;52.78;;;25.23;;
38053;SDS011;23859;50.672;7.164;2022-11-20T05:53:41;50.38;;;24.80;;
38053;SDS011;23859;50.672;7.164;2022-11-20T05:56:09;49.90;;;22.52;;
38053;SDS011;23859;50.672;7.164;2022-11-20T05:58:37;50.72;;;23.60;;
38053;SDS011;23859;50.672;7.164;2022-11-20T06:01:08;49.97;;;23.83;;
38053;SDS011;23859;50.672;7.164;2022-11-20T06:03:36;49.25;;;23.30;;
38053;SDS011;23859;50.672;7.164;2022-11-20T06:06:04;53.13;;;24.42;;
38053;SDS011;23859;50.672;7.164;2022-11-20T06:08:31;53.20;;;25.48;;
38053;SDS011;23859;50.672;7.164;2022-11-20T06:10:57;53.22;;;25.10;;
38053;SDS011;23859;50.672;7.164;2022-11-20T06:13:27;52.30;;;25.95;;
38053;SDS011;23859;50.672;7.164;2022-11-20T06:15:53;51.80;;;23.90;;
38053;SDS011;23859;50.672;7.164;2022-11-20T06:18:19;56.45;;;24.45;;
38053;SDS011;23859;50.672;7.164;2022-11-20T06:20:45;57.22;;;25.92;;
38053;SDS011;23859;50.672;7.164;2022-11-20T06:23:12;55.67;;;25.13;;
38053;SDS011;23859;50.672;7.164;2022-11-20T06:25:39;54.45;;;24.42;;
38053;SDS011;23859;50.672;7.164;2022-11-20T06:28:06;55.38;;;25.35;;
38053;SDS011;23859;50.672;7.164;2022-11-20T06:30:33;54.33;;;24.85;;
38053;SDS011;23859;50.672;7.164;2022-11-20T06:33:00;55.03;;;26.85;;
38053;SDS011;23859;50.672;7.164;2022-11-20T06:35:26;55.97;;;24.77;;
38053;SDS011;23859;50.672;7.164;2022-11-20T06:37:52;54.60;;;26.13;;
38053;SDS011;23859;50.672;7.164;2022-11-20T06:40:18;61.38;;;27.55;;
38053;SDS011;23859;50.672;7.164;2022-11-20T06:42:44;54.28;;;24.35;;
38053;SDS011;23859;50.672;7.164;2022-11-20T06:45:10;62.05;;;25.05;;
38053;SDS011;23859;50.672;7.164;2022-11-20T06:47:36;55.40;;;25.70;;
38053;SDS011;23859;50.672;7.164;2022-11-20T06:50:02;54.25;;;24.42;;
38053;SDS011;23859;50.672;7.164;2022-11-20T06:52:28;56.17;;;25.15;;
38053;SDS011;23859;50.672;7.164;2022-11-20T06:54:54;53.90;;;24.55;;
38053;SDS011;23859;50.672;7.164;2022-11-20T06:57:20;53.97;;;23.90;;
38053;SDS011;23859;50.672;7.164;2022-11-20T06:59:46;58.92;;;25.33;;
38053;SDS011;23859;50.672;7.164;2022-11-20T07:02:13;55.00;;;25.17;;
38053;SDS011;23859;50.672;7.164;2022-11-20T07:04:39;56.13;;;25.35;;
38053;SDS011;23859;50.672;7.164;2022-11-20T07:07:05;55.05;;;24.52;;
38053;SDS011;23859;50.672;7.164;2022-11-20T07:09:31;59.92;;;25.85;;
38053;SDS011;23859;50.672;7.164;2022-11-20T07:11:58;52.60;;;24.27;;
38053;SDS011;23859;50.672;7.164;2022-11-20T07:14:25;54.97;;;23.73;;
38053;SDS011;23859;50.672;7.164;2022-11-20T07:16:51;53.67;;;25.13;;
38053;SDS011;23859;50.672;7.164;2022-11-20T07:19:17;54.50;;;24.98;;
38053;SDS011;23859;50.672;7.164;2022-11-20T07:21:43;61.38;;;25.90;;
38053;SDS011;23859;50.672;7.164;2022-11-20T07:24:09;60.17;;;25.83;;
38053;SDS011;23859;50.672;7.164;2022-11-20T07:26:35;57.85;;;25.98;;
38053;SDS011;23859;50.672;7.164;2022-11-20T07:29:01;62.88;;;25.45;;
38053;SDS011;23859;50.672;7.164;2022-11-20T07:31:27;59.05;;;24.83;;
38053;SDS011;23859;50.672;7.164;2022-11-20T07:33:53;58.00;;;24.00;;
38053;SDS011;23859;50.672;7.164;2022-11-20T07:36:19;56.67;;;25.08;;
38053;SDS011;23859;50.672;7.164;2022-11-20T07:38:45;55.85;;;22.95;;
38053;SDS011;23859;50.672;7.164;2022-11-20T07:41:11;56.08;;;24.17;;
38053;SDS011;23859;50.672;7.164;2022-11-20T07:43:37;54.80;;;24.40;;
38053;SDS011;23859;50.672;7.164;2022-11-20T07:46:03;55.13;;;24.67;;
38053;SDS011;23859;50.672;7.164;2022-11-20T07:48:30;55.92;;;23.95;;
38053;SDS011;23859;50.672;7.164;2022-11-20T07:50:56;58.22;;;25.58;;
38053;SDS011;23859;50.672;7.164;2022-11-20T07:53:23;56.38;;;24.85;;
38053;SDS011;23859;50.672;7.164;2022-11-20T07:55:49;56.17;;;25.67;;
38053;SDS011;23859;50.672;7.164;2022-11-20T07:58:17;65.45;;;24.02;;
38053;SDS011;23859;50.672;7.164;2022-11-20T08:00:44;46.97;;;22.17;;
38053;SDS011;23859;50.672;7.164;2022-11-20T08:03:11;45.67;;;22.15;;
38053;SDS011;23859;50.672;7.164;2022-11-20T08:05:37;47.63;;;20.80;;
38053;SDS011;23859;50.672;7.164;2022-11-20T08:08:03;48.63;;;22.55;;
38053;SDS011;23859;50.672;7.164;2022-11-20T08:10:30;45.63;;;22.45;;
38053;SDS011;23859;50.672;7.164;2022-11-20T08:12:56;47.63;;;21.80;;
38053;SDS011;23859;50.672;7.164;2022-11-20T08:15:40;43.38;;;21.88;;
38053;SDS011;23859;50.672;7.164;2022-11-20T08:18:12;46.17;;;22.08;;
38053;SDS011;23859;50.672;7.164;2022-11-20T08:20:38;44.83;;;20.58;;
38053;SDS011;23859;50.672;7.164;2022-11-20T08:23:05;58.13;;;32.47;;
38053;SDS011;23859;50.672;7.164;2022-11-20T08:25:32;51.30;;;24.67;;
38053;SDS011;23859;50.672;7.164;2022-11-20T08:28:04;59.33;;;26.58;;
38053;SDS011;23859;50.672;7.164;2022-11-20T08:30:31;48.70;;;23.90;;
38053;SDS011;23859;50.672;7.164;2022-11-20T08:33:01;52.03;;;24.25;;
38053;SDS011;23859;50.672;7.164;2022-11-20T08:35:32;46.53;;;23.70;;
38053;SDS011;23859;50.672;7.164;2022-11-20T08:38:03;49.78;;;23.23;;
38053;SDS011;23859;50.672;7.164;2022-11-20T08:40:30;53.90;;;23.77;;
38053;SDS011;23859;50.672;7.164;2022-11-20T08:42:56;48.58;;;24.73;;
38053;SDS011;23859;50.672;7.164;2022-11-20T08:45:23;46.38;;;21.42;;
38053;SDS011;23859;50.672;7.164;2022-11-20T08:47:49;45.58;;;21.50;;
38053;SDS011;23859;50.672;7.164;2022-11-20T08:50:15;46.45;;;22.90;;
38053;SDS011;23859;50.672;7.164;2022-11-20T08:52:41;43.97;;;21.38;;
38053;SDS011;23859;50.672;7.164;2022-11-20T08:55:08;50.03;;;22.85;;
38053;SDS011;23859;50.672;7.164;2022-11-20T08:57:35;46.97;;;22.40;;
38053;SDS011;23859;50.672;7.164;2022-11-20T09:00:03;47.17;;;23.45;;
38053;SDS011;23859;50.672;7.164;2022-11-20T09:02:31;49.75;;;23.50;;
38053;SDS011;23859;50.672;7.164;2022-11-20T09:04:57;52.17;;;22.50;;
38053;SDS011;23859;50.672;7.164;2022-11-20T09:07:24;48.35;;;22.70;;
38053;SDS011;23859;50.672;7.164;2022-11-20T09:09:50;53.58;;;24.10;;
38053;SDS011;23859;50.672;7.164;2022-11-20T09:12:16;49.03;;;23.30;;
38053;SDS011;23859;50.672;7.164;2022-11-20T09:14:42;50.25;;;24.42;;
38053;SDS011;23859;50.672;7.164;2022-11-20T09:17:09;54.05;;;24.20;;
38053;SDS011;23859;50.672;7.164;2022-11-20T09:19:38;55.25;;;25.63;;
38053;SDS011;23859;50.672;7.164;2022-11-20T09:22:05;55.10;;;25.10;;
38053;SDS011;23859;50.672;7.164;2022-11-20T09:24:32;56.97;;;25.17;;
38053;SDS011;23859;50.672;7.164;2022-11-20T09:26:58;53.35;;;27.05;;
38053;SDS011;23859;50.672;7.164;2022-11-20T09:29:27;54.60;;;24.55;;
38053;SDS011;23859;50.672;7.164;2022-11-20T09:31:53;56.70;;;24.08;;
38053;SDS011;23859;50.672;7.164;2022-11-20T09:34:19;51.85;;;24.33;;
38053;SDS011;23859;50.672;7.164;2022-11-20T09:36:46;52.63;;;24.30;;
38053;SDS011;23859;50.672;7.164;2022-11-20T09:39:12;54.45;;;26.13;;
38053;SDS011;23859;50.672;7.164;2022-11-20T09:41:51;55.63;;;25.92;;
38053;SDS011;23859;50.672;7.164;2022-11-20T09:47:16;55.78;;;24.92;;
38053;SDS011;23859;50.672;7.164;2022-11-20T09:50:17;49.30;;;23.13;;
38053;SDS011;23859;50.672;7.164;2022-11-20T09:55:41;48.72;;;22.67;;
38053;SDS011;23859;50.672;7.164;2022-11-20T09:58:12;46.17;;;22.42;;
38053;SDS011;23859;50.672;7.164;2022-11-20T10:01:10;45.65;;;22.17;;
38053;SDS011;23859;50.672;7.164;2022-11-20T10:03:48;42.13;;;20.30;;
38053;SDS011;23859;50.672;7.164;2022-11-20T10:06:17;39.38;;;19.65;;
38053;SDS011;23859;50.672;7.164;2022-11-20T10:09:21;42.47;;;20.27;;
38053;SDS011;23859;50.672;7.164;2022-11-20T10:11:48;42.75;;;21.90;;
38053;SDS011;23859;50.672;7.164;2022-11-20T10:14:23;35.40;;;17.00;;
38053;SDS011;23859;50.672;7.164;2022-11-20T10:17:26;38.53;;;17.00;;
38053;SDS011;23859;50.672;7.164;2022-11-20T10:25:24;35.97;;;18.60;;
38053;SDS011;23859;50.672;7.164;2022-11-20T10:30:57;40.35;;;17.98;;
38053;SDS011;23859;50.672;7.164;2022-11-20T10:33:29;34.00;;;16.88;;
38053;SDS011;23859;50.672;7.164;2022-11-20T10:36:10;39.92;;;20.17;;
38053;SDS011;23859;50.672;7.164;2022-11-20T10:38:39;42.25;;;20.67;;
38053;SDS011;23859;50.672;7.164;2022-11-20T10:41:20;40.00;;;19.83;;
38053;SDS011;23859;50.672;7.164;2022-11-20T10:44:03;40.33;;;20.85;;
38053;SDS011;23859;50.672;7.164;2022-11-20T10:47:01;38.15;;;19.45;;
38053;SDS011;23859;50.672;7.164;2022-11-20T10:49:28;44.67;;;20.52;;
38053;SDS011;23859;50.672;7.164;2022-11-20T10:55:05;41.28;;;20.90;;
38053;SDS011;23859;50.672;7.164;2022-11-20T11:00:20;41.13;;;20.45;;
38053;SDS011;23859;50.672;7.164;2022-11-20T11:02:47;48.47;;;21.65;;
38053;SDS011;23859;50.672;7.164;2022-11-20T11:07:59;44.03;;;21.80;;
38053;SDS011;23859;50.672;7.164;2022-11-20T11:10:28;46.67;;;20.58;;
38053;SDS011;23859;50.672;7.164;2022-11-20T11:13:06;41.28;;;21.40;;
38053;SDS011;23859;50.672;7.164;2022-11-20T11:15:39;42.25;;;20.50;;
38053;SDS011;23859;50.672;7.164;2022-11-20T11:18:09;38.40;;;19.42;;
38053;SDS011;23859;50.672;7.164;2022-11-20T11:20:36;40.58;;;21.10;;
38053;SDS011;23859;50.672;7.164;2022-11-20T11:23:02;41.45;;;21.33;;
38053;SDS011;23859;50.672;7.164;2022-11-20T11:25:30;38.95;;;20.02;;
38053;SDS011;23859;50.672;7.164;2022-11-20T11:28:00;40.80;;;20.20;;
38053;SDS011;23859;50.672;7.164;2022-11-20T11:30:43;36.83;;;18.25;;
38053;SDS011;23859;50.672;7.164;2022-11-20T11:33:10;39.10;;;19.15;;
38053;SDS011;23859;50.672;7.164;2022-11-20T11:35:47;35.38;;;18.63;;
38053;SDS011;23859;50.672;7.164;2022-11-20T11:38:19;43.17;;;19.08;;
38053;SDS011;23859;50.672;7.164;2022-11-20T11:40:59;36.55;;;18.30;;
38053;SDS011;23859;50.672;7.164;2022-11-20T11:43:32;40.97;;;19.90;;
38053;SDS011;23859;50.672;7.164;2022-11-20T11:48:56;37.13;;;18.75;;
38053;SDS011;23859;50.672;7.164;2022-11-20T11:54:43;34.60;;;16.20;;
38053;SDS011;23859;50.672;7.164;2022-11-20T12:00:15;34.58;;;18.10;;
38053;SDS011;23859;50.672;7.164;2022-11-20T12:05:16;41.63;;;19.70;;
38053;SDS011;23859;50.672;7.164;2022-11-20T12:10:41;42.03;;;19.55;;
38053;SDS011;23859;50.672;7.164;2022-11-20T12:15:55;44.03;;;22.27;;
38053;SDS011;23859;50.672;7.164;2022-11-20T12:18:22;43.30;;;19.88;;
38053;SDS011;23859;50.672;7.164;2022-11-20T12:20:58;37.20;;;20.20;;
38053;SDS011;23859;50.672;7.164;2022-11-20T12:35:03;37.45;;;19.10;;
38053;SDS011;23859;50.672;7.164;2022-11-20T12:40:50;33.38;;;17.08;;
38053;SDS011;23859;50.672;7.164;2022-11-20T12:43:26;32.03;;;17.98;;
38053;SDS011;23859;50.672;7.164;2022-11-20T12:49:11;34.97;;;17.70;;
38053;SDS011;23859;50.672;7.164;2022-11-20T12:54:53;36.70;;;17.55;;
38053;SDS011;23859;50.672;7.164;2022-11-20T12:57:42;35.53;;;17.98;;
38053;SDS011;23859;50.672;7.164;2022-11-20T13:00:31;37.20;;;18.27;;
38053;SDS011;23859;50.672;7.164;2022-11-20T13:05:58;32.72;;;16.67;;
38053;SDS011;23859;50.672;7.164;2022-11-20T13:08:43;27.25;;;15.63;;
38053;SDS011;23859;50.672;7.164;2022-11-20T13:11:32;31.40;;;17.33;;
38053;SDS011;23859;50.672;7.164;2022-11-20T13:15:32;36.50;;;18.10;;
38053;SDS011;23859;50.672;7.164;2022-11-20T13:20:16;33.33;;;16.02;;
38053;SDS011;23859;50.672;7.164;2022-11-20T13:22:44;29.70;;;16.50;;
38053;SDS011;23859;50.672;7.164;2022-11-20T13:25:23;34.80;;;16.70;;
38053;SDS011;23859;50.672;7.164;2022-11-20T13:27:54;31.98;;;17.25;;
38053;SDS011;23859;50.672;7.164;2022-11-20T13:30:23;30.60;;;15.82;;
38053;SDS011;23859;50.672;7.164;2022-11-20T13:32:58;32.83;;;16.80;;
38053;SDS011;23859;50.672;7.164;2022-11-20T13:35:32;29.85;;;16.60;;
38053;SDS011;23859;50.672;7.164;2022-11-20T13:38:06;30.02;;;16.13;;
38053;SDS011;23859;50.672;7.164;2022-11-20T13:40:33;30.88;;;17.10;;
38053;SDS011;23859;50.672;7.164;2022-11-20T13:43:38;30.20;;;16.00;;
38053;SDS011;23859;50.672;7.164;2022-11-20T13:46:07;29.52;;;15.90;;
38053;SDS011;23859;50.672;7.164;2022-11-20T13:48:38;29.77;;;16.05;;
38053;SDS011;23859;50.672;7.164;2022-11-20T13:56:40;32.20;;;16.65;;
38053;SDS011;23859;50.672;7.164;2022-11-20T14:02:20;30.45;;;15.98;;
38053;SDS011;23859;50.672;7.164;2022-11-20T14:04:49;32.45;;;15.43;;
38053;SDS011;23859;50.672;7.164;2022-11-20T14:07:18;28.77;;;16.15;;
38053;SDS011;23859;50.672;7.164;2022-11-20T14:09:49;31.75;;;16.27;;
38053;SDS011;23859;50.672;7.164;2022-11-20T14:12:21;30.25;;;15.50;;
38053;SDS011;23859;50.672;7.164;2022-11-20T14:14:53;32.90;;;16.27;;
38053;SDS011;23859;50.672;7.164;2022-11-20T14:19:50;30.45;;;15.85;;
38053;SDS011;23859;50.672;7.164;2022-11-20T14:22:24;29.63;;;16.30;;
38053;SDS011;23859;50.672;7.164;2022-11-20T14:25:02;33.28;;;15.50;;
38053;SDS011;23859;50.672;7.164;2022-11-20T14:27:35;30.63;;;15.63;;
38053;SDS011;23859;50.672;7.164;2022-11-20T14:30:04;30.23;;;16.13;;
38053;SDS011;23859;50.672;7.164;2022-11-20T14:32:31;35.95;;;16.00;;
38053;SDS011;23859;50.672;7.164;2022-11-20T14:35:02;30.00;;;16.00;;
38053;SDS011;23859;50.672;7.164;2022-11-20T14:37:33;31.73;;;15.57;;
38053;SDS011;23859;50.672;7.164;2022-11-20T14:40:02;31.77;;;16.00;;
38053;SDS011;23859;50.672;7.164;2022-11-20T14:42:30;27.83;;;14.60;;
38053;SDS011;23859;50.672;7.164;2022-11-20T14:44:56;26.88;;;15.10;;
38053;SDS011;23859;50.672;7.164;2022-11-20T14:47:25;37.17;;;14.50;;
38053;SDS011;23859;50.672;7.164;2022-11-20T14:49:56;25.42;;;13.80;;
38053;SDS011;23859;50.672;7.164;2022-11-20T14:52:24;26.45;;;13.57;;
38053;SDS011;23859;50.672;7.164;2022-11-20T14:54:55;24.13;;;13.02;;
38053;SDS011;23859;50.672;7.164;2022-11-20T14:57:26;29.02;;;15.73;;
38053;SDS011;23859;50.672;7.164;2022-11-20T15:00:06;29.45;;;15.82;;
38053;SDS011;23859;50.672;7.164;2022-11-20T15:02:45;29.73;;;14.68;;
38053;SDS011;23859;50.672;7.164;2022-11-20T15:05:16;29.25;;;15.18;;
38053;SDS011;23859;50.672;7.164;2022-11-20T15:07:45;32.03;;;16.60;;
38053;SDS011;23859;50.672;7.164;2022-11-20T15:12:47;25.98;;;15.40;;
38053;SDS011;23859;50.672;7.164;2022-11-20T15:15:23;30.25;;;15.35;;
38053;SDS011;23859;50.672;7.164;2022-11-20T15:18:04;26.15;;;14.82;;
38053;SDS011;23859;50.672;7.164;2022-11-20T15:20:35;28.85;;;13.68;;
38053;SDS011;23859;50.672;7.164;2022-11-20T15:23:01;32.47;;;15.85;;
38053;SDS011;23859;50.672;7.164;2022-11-20T15:25:33;26.70;;;14.77;;
38053;SDS011;23859;50.672;7.164;2022-11-20T15:27:59;31.17;;;14.77;;
38053;SDS011;23859;50.672;7.164;2022-11-20T15:30:25;29.92;;;15.57;;
38053;SDS011;23859;50.672;7.164;2022-11-20T15:32:52;25.02;;;12.43;;
38053;SDS011;23859;50.672;7.164;2022-11-20T15:35:18;27.63;;;14.25;;
38053;SDS011;23859;50.672;7.164;2022-11-20T15:37:44;25.30;;;14.27;;
38053;SDS011;23859;50.672;7.164;2022-11-20T15:40:10;21.65;;;11.68;;
38053;SDS011;23859;50.672;7.164;2022-11-20T15:42:36;18.58;;;10.07;;
38053;SDS011;23859;50.672;7.164;2022-11-20T15:45:02;23.90;;;12.48;;
38053;SDS011;23859;50.672;7.164;2022-11-20T15:47:29;21.90;;;11.65;;
38053;SDS011;23859;50.672;7.164;2022-11-20T15:49:58;25.25;;;12.85;;
38053;SDS011;23859;50.672;7.164;2022-11-20T15:52:25;22.13;;;11.07;;
38053;SDS011;23859;50.672;7.164;2022-11-20T15:54:51;23.90;;;11.10;;
38053;SDS011;23859;50.672;7.164;2022-11-20T15:57:17;26.67;;;12.35;;
38053;SDS011;23859;50.672;7.164;2022-11-20T15:59:43;31.33;;;14.38;;
38053;SDS011;23859;50.672;7.164;2022-11-20T16:02:13;30.42;;;16.85;;
38053;SDS011;23859;50.672;7.164;2022-11-20T16:04:40;43.22;;;19.55;;